Time;durP1;ratioP1;P1;durP2;ratioP2;P2;SDS_P1;SDS_P2;PMS_P1;PMS_P2;Temp;Humidity;BMP_temperature;BMP_pressure;BME280_temperature;BME280_humidity;BME280_pressure;Samples;Min_cycle;Max_cycle;Signal;HPM_P1;HPM_P2
2023/07/11 00:01:46;;;;;;;5.13;1.90;;;18.90;99.90;;;;;;4984859;28;20072;-62
2023/07/11 00:04:11;;;;;;;5.43;1.80;;;19.20;99.90;;;;;;4986998;28;20397;-62
2023/07/11 00:06:39;;;;;;;5.05;1.58;;;19.40;99.90;;;;;;4988386;28;20031;-62
2023/07/11 00:09:05;;;;;;;7.85;2.35;;;18.90;99.90;;;;;;4986326;28;20054;-62
2023/07/11 00:11:31;;;;;;;5.80;2.03;;;19.20;99.90;;;;;;4981856;28;20130;-62
2023/07/11 00:13:59;;;;;;;4.78;1.75;;;18.40;99.90;;;;;;4979197;28;20121;-62
2023/07/11 00:16:25;;;;;;;5.57;2.25;;;18.70;99.90;;;;;;4982461;28;20054;-62
2023/07/11 00:18:52;;;;;;;5.38;2.10;;;19.30;99.90;;;;;;4990051;28;20049;-62
2023/07/11 00:21:18;;;;;;;6.90;2.42;;;19.30;99.90;;;;;;4981895;28;20058;-62
2023/07/11 00:23:43;;;;;;;6.70;2.35;;;19.30;99.90;;;;;;4980049;28;20134;-62
2023/07/11 00:26:10;;;;;;;5.47;2.00;;;18.20;99.90;;;;;;4972956;28;20129;-62
2023/07/11 00:28:35;;;;;;;6.57;2.30;;;17.80;99.90;;;;;;4984609;28;20085;-63
2023/07/11 00:31:01;;;;;;;7.65;2.13;;;19.10;99.90;;;;;;4987408;28;20061;-62
2023/07/11 00:33:27;;;;;;;5.47;2.13;;;18.20;99.90;;;;;;5006297;28;20470;-63
2023/07/11 00:35:54;;;;;;;5.97;2.03;;;19.00;99.90;;;;;;4984271;28;20042;-62
2023/07/11 00:38:20;;;;;;;5.95;2.30;;;18.40;99.90;;;;;;4976090;28;20055;-61
2023/07/11 00:40:48;;;;;;;7.25;2.60;;;18.30;99.90;;;;;;4985250;28;20057;-63
2023/07/11 00:43:17;;;;;;;5.82;1.80;;;19.20;99.90;;;;;;4974078;28;20066;-63
2023/07/11 00:46:03;;;;;;;5.88;2.00;;;19.20;99.90;;;;;;4978321;28;20043;-62
2023/07/11 00:48:36;;;;;;;6.50;1.90;;;18.20;99.90;;;;;;4976522;28;20039;-62
2023/07/11 00:51:02;;;;;;;4.57;1.90;;;19.10;99.90;;;;;;4982647;28;20035;-61
2023/07/11 00:53:29;;;;;;;7.95;1.98;;;18.10;99.90;;;;;;4974552;28;20631;-62
2023/07/11 00:56:00;;;;;;;5.15;1.70;;;19.10;99.90;;;;;;4988546;28;20045;-61
2023/07/11 00:58:25;;;;;;;6.50;2.15;;;18.50;99.90;;;;;;4959470;28;20047;-61
2023/07/11 01:00:52;;;;;;;5.57;2.55;;;18.40;99.90;;;;;;4980698;28;20049;-61
2023/07/11 01:03:19;;;;;;;6.85;2.30;;;;;;;;;;4987210;28;20038;-61
2023/07/11 01:05:44;;;;;;;5.43;2.13;;;18.90;99.90;;;;;;4986617;28;20046;-61
2023/07/11 01:08:10;;;;;;;7.55;2.45;;;18.70;1.00;;;;;;4980630;28;20030;-61
2023/07/11 01:10:36;;;;;;;6.10;2.80;;;18.60;1.00;;;;;;4981690;28;20035;-61
2023/07/11 01:13:04;;;;;;;6.97;2.50;;;18.40;1.00;;;;;;4982504;28;20056;-61
2023/07/11 01:15:30;;;;;;;6.07;2.70;;;18.70;1.00;;;;;;4975077;28;20108;-61
2023/07/11 01:17:55;;;;;;;8.35;2.60;;;18.30;1.00;;;;;;4982549;28;20046;-61
2023/07/11 01:20:22;;;;;;;10.20;3.10;;;17.90;1.00;;;;;;4978331;28;20039;-61
2023/07/11 01:22:51;;;;;;;6.05;2.50;;;18.10;1.00;;;;;;4978750;28;20050;-62
2023/07/11 01:25:17;;;;;;;6.55;2.60;;;18.30;1.00;;;;;;4984178;28;20078;-61
2023/07/11 01:27:46;;;;;;;6.95;2.50;;;17.90;1.00;;;;;;4982588;28;20096;-61
2023/07/11 01:30:16;;;;;;;8.98;3.72;;;18.20;84.40;;;;;;4981497;28;20038;-61
2023/07/11 01:32:41;;;;;;;5.95;2.72;;;18.10;78.30;;;;;;4976584;28;20038;-62
2023/07/11 01:35:07;;;;;;;8.95;3.20;;;18.90;87.00;;;;;;4978932;28;20046;-61
2023/07/11 01:37:33;;;;;;;6.68;2.60;;;17.90;99.90;;;;;;4980924;28;20117;-62
2023/07/11 01:39:59;;;;;;;6.22;3.00;;;17.80;99.90;;;;;;4969798;28;20119;-62
2023/07/11 01:42:26;;;;;;;8.15;3.13;;;18.10;99.90;;;;;;4980524;28;20074;-61
2023/07/11 01:44:51;;;;;;;6.43;3.33;;;17.90;99.90;;;;;;4984079;28;20448;-61
2023/07/11 01:47:17;;;;;;;7.72;2.70;;;17.90;99.90;;;;;;4975491;28;20075;-61
2023/07/11 01:49:43;;;;;;;7.18;3.17;;;17.70;99.90;;;;;;4976880;28;20034;-61
2023/07/11 01:52:16;;;;;;;5.55;3.00;;;18.10;99.90;;;;;;4978881;28;20432;-62
2023/07/11 01:54:42;;;;;;;7.18;2.80;;;17.80;99.90;;;;;;4969844;28;20042;-62
2023/07/11 01:57:08;;;;;;;8.85;3.47;;;17.80;99.90;;;;;;4974204;28;20045;-61
2023/07/11 01:59:35;;;;;;;7.10;3.40;;;17.90;99.90;;;;;;4972478;28;20042;-61
2023/07/11 02:02:00;;;;;;;7.60;3.45;;;18.00;99.90;;;;;;4977171;28;20379;-61
2023/07/11 02:04:26;;;;;;;6.25;3.00;;;17.50;99.90;;;;;;4981099;28;20043;-61
2023/07/11 02:06:52;;;;;;;5.95;2.80;;;18.20;99.90;;;;;;4970545;28;20074;-61
2023/07/11 02:09:19;;;;;;;7.22;2.92;;;17.80;99.90;;;;;;4974099;28;20109;-62
2023/07/11 02:11:45;;;;;;;5.22;2.50;;;17.90;99.90;;;;;;4975330;28;20034;-61
2023/07/11 02:14:14;;;;;;;7.57;3.70;;;17.90;99.90;;;;;;4972524;28;20104;-61
2023/07/11 02:16:39;;;;;;;5.90;2.72;;;17.70;99.90;;;;;;4979467;28;20043;-61
2023/07/11 02:19:05;;;;;;;6.15;2.85;;;17.70;99.90;;;;;;4980302;28;20449;-61
2023/07/11 02:21:30;;;;;;;7.00;2.80;;;18.30;99.90;;;;;;4984239;28;20115;-62
2023/07/11 02:23:56;;;;;;;5.70;3.00;;;17.80;99.90;;;;;;4977125;28;20077;-61
2023/07/11 02:26:25;;;;;;;8.57;3.33;;;17.90;99.90;;;;;;4969470;28;20054;-61
2023/07/11 02:28:51;;;;;;;7.78;3.38;;;17.70;99.90;;;;;;4984224;28;20038;-61
2023/07/11 02:31:17;;;;;;;6.88;3.08;;;17.90;99.90;;;;;;4987579;28;20032;-61
2023/07/11 02:33:42;;;;;;;5.82;3.08;;;17.80;99.90;;;;;;4973515;28;20093;-61
2023/07/11 02:36:08;;;;;;;6.03;2.88;;;17.70;99.90;;;;;;4984531;28;20046;-61
2023/07/11 02:38:34;;;;;;;6.10;3.00;;;17.90;99.90;;;;;;4978485;28;20047;-61
2023/07/11 02:41:00;;;;;;;7.50;3.50;;;;;;;;;;4985870;28;20045;-61
2023/07/11 02:43:25;;;;;;;7.43;2.90;;;18.10;99.90;;;;;;4978238;28;20412;-61
2023/07/11 02:45:51;;;;;;;6.80;3.10;;;18.00;99.90;;;;;;4987595;28;20046;-61
2023/07/11 02:48:17;;;;;;;6.13;2.97;;;17.90;99.90;;;;;;4978833;28;20514;-62
2023/07/11 02:50:43;;;;;;;6.97;3.05;;;17.60;99.90;;;;;;4987923;28;20042;-62
2023/07/11 02:53:09;;;;;;;7.32;3.17;;;17.80;99.90;;;;;;4989129;28;20161;-61
2023/07/11 02:55:39;;;;;;;6.88;3.20;;;17.60;99.90;;;;;;4974554;28;20079;-61
2023/07/11 02:58:04;;;;;;;6.78;3.10;;;17.90;99.90;;;;;;4991495;28;20395;-61
2023/07/11 03:00:30;;;;;;;9.13;3.35;;;17.90;99.90;;;;;;4975194;28;20121;-62
2023/07/11 03:02:56;;;;;;;10.40;4.30;;;18.00;99.90;;;;;;5003854;28;20126;-61
2023/07/11 03:05:21;;;;;;;8.60;3.20;;;18.40;99.90;;;;;;4986994;28;20536;-61
2023/07/11 03:07:47;;;;;;;6.70;3.25;;;17.70;99.90;;;;;;4991428;28;20129;-61
2023/07/11 03:10:13;;;;;;;7.45;3.10;;;17.60;99.90;;;;;;4985968;28;20034;-61
2023/07/11 03:12:39;;;;;;;8.25;3.63;;;17.70;99.90;;;;;;4984222;28;20030;-61
2023/07/11 03:15:05;;;;;;;8.10;3.70;;;17.60;99.90;;;;;;4985626;28;20062;-61
2023/07/11 03:17:31;;;;;;;7.72;3.28;;;17.70;99.90;;;;;;4976802;28;20065;-62
2023/07/11 03:19:57;;;;;;;7.43;3.35;;;17.70;99.90;;;;;;4991521;28;20081;-62
2023/07/11 03:22:22;;;;;;;7.05;3.35;;;17.80;99.90;;;;;;4980906;28;20115;-61
2023/07/11 03:24:48;;;;;;;6.38;3.42;;;17.70;99.90;;;;;;4979518;28;20081;-61
2023/07/11 03:27:14;;;;;;;6.50;3.45;;;17.40;99.90;;;;;;4985428;28;20065;-61
2023/07/11 03:29:39;;;;;;;6.63;2.85;;;17.60;99.90;;;;;;4967726;28;20062;-61
2023/07/11 03:32:06;;;;;;;7.32;3.28;;;17.60;99.90;;;;;;4983383;28;20027;-61
2023/07/11 03:34:32;;;;;;;8.27;3.10;;;17.80;99.90;;;;;;4982985;28;20118;-61
2023/07/11 03:36:57;;;;;;;7.75;3.20;;;17.80;99.90;;;;;;4984103;28;20109;-61
2023/07/11 03:39:24;;;;;;;8.25;3.30;;;17.70;99.90;;;;;;4984137;28;20126;-62
2023/07/11 03:41:50;;;;;;;7.00;2.95;;;17.60;99.90;;;;;;4983243;28;20503;-61
2023/07/11 03:44:16;;;;;;;9.35;3.35;;;;;;;;;;4975558;28;20073;-61
2023/07/11 03:46:41;;;;;;;8.05;3.38;;;17.70;99.90;;;;;;4976200;28;20066;-61
2023/07/11 03:49:07;;;;;;;7.03;3.60;;;18.20;99.90;;;;;;4991543;28;20290;-61
2023/07/11 03:51:33;;;;;;;8.65;3.75;;;17.80;99.90;;;;;;4964931;28;20158;-61
2023/07/11 03:53:59;;;;;;;10.05;4.22;;;17.60;99.90;;;;;;4980391;28;20507;-61
2023/07/11 03:56:27;;;;;;;9.43;3.10;;;17.90;99.90;;;;;;4979493;28;20417;-61
2023/07/11 03:58:53;;;;;;;7.32;3.38;;;17.70;99.90;;;;;;4985135;28;20046;-61
2023/07/11 04:01:19;;;;;;;7.35;3.30;;;17.60;99.90;;;;;;4985531;28;20039;-61
2023/07/11 04:03:45;;;;;;;5.95;3.30;;;17.70;99.90;;;;;;4975161;28;20039;-61
2023/07/11 04:06:11;;;;;;;7.65;3.05;;;18.10;99.90;;;;;;4990611;28;20049;-61
2023/07/11 04:08:37;;;;;;;7.95;2.45;;;17.90;99.90;;;;;;4975140;28;20125;-61
2023/07/11 04:11:03;;;;;;;6.70;2.80;;;17.90;99.90;;;;;;4987666;28;20371;-61
2023/07/11 04:13:29;;;;;;;6.22;3.20;;;;;;;;;;4973917;28;20516;-61
2023/07/11 04:15:55;;;;;;;6.88;3.00;;;18.30;99.90;;;;;;4983805;28;20108;-61
2023/07/11 04:18:21;;;;;;;7.03;3.22;;;17.90;99.90;;;;;;4981475;28;20125;-61
2023/07/11 04:20:47;;;;;;;6.20;3.00;;;17.70;99.90;;;;;;4983244;28;20046;-61
2023/07/11 04:23:16;;;;;;;8.10;3.22;;;17.80;99.90;;;;;;4985118;28;20107;-61
2023/07/11 04:25:41;;;;;;;8.10;3.13;;;18.00;99.90;;;;;;4982489;28;20556;-61
2023/07/11 04:28:07;;;;;;;6.55;3.45;;;18.30;99.90;;;;;;4981152;28;20035;-61
2023/07/11 04:30:33;;;;;;;8.05;3.40;;;17.90;99.90;;;;;;4977163;28;20473;-61
2023/07/11 04:32:59;;;;;;;7.55;3.33;;;17.70;99.90;;;;;;4984251;28;20034;-61
2023/07/11 04:35:24;;;;;;;7.15;3.15;;;17.60;99.90;;;;;;4974600;28;20105;-61
2023/07/11 04:37:50;;;;;;;8.95;3.35;;;17.60;99.90;;;;;;4984256;28;20038;-61
2023/07/11 04:40:16;;;;;;;7.40;3.65;;;17.90;99.90;;;;;;4982990;28;20074;-62
2023/07/11 04:42:42;;;;;;;7.93;4.30;;;18.20;1.00;;;;;;4968869;28;20053;-62
2023/07/11 04:45:09;;;;;;;8.70;3.55;;;17.70;99.90;;;;;;4976131;28;20034;-61
2023/07/11 04:47:35;;;;;;;6.95;3.70;;;18.00;1.00;;;;;;4984795;28;20047;-61
2023/07/11 04:50:02;;;;;;;9.43;3.72;;;18.00;1.00;;;;;;4970797;28;20485;-61
2023/07/11 04:52:28;;;;;;;11.80;5.53;;;18.50;1.00;;;;;;4984684;28;20081;-61
2023/07/11 04:54:54;;;;;;;12.32;4.97;;;17.50;1.00;;;;;;4974339;28;20122;-61
2023/07/11 04:57:21;;;;;;;9.32;4.22;;;18.50;1.00;;;;;;4974752;28;20125;-61
2023/07/11 04:59:47;;;;;;;9.82;4.40;;;17.80;1.00;;;;;;4978176;28;20507;-61
2023/07/11 05:02:12;;;;;;;15.48;5.97;;;18.00;1.00;;;;;;4975109;28;20081;-61
2023/07/11 05:04:39;;;;;;;11.30;4.18;;;18.10;1.00;;;;;;4979984;28;20045;-61
2023/07/11 05:07:05;;;;;;;10.13;4.40;;;18.20;1.00;;;;;;4974262;28;20313;-61
2023/07/11 05:09:31;;;;;;;11.00;4.25;;;17.80;1.00;;;;;;4981706;28;20407;-61
2023/07/11 05:11:56;;;;;;;9.23;5.05;;;18.10;1.00;;;;;;4980807;28;20027;-61
2023/07/11 05:14:23;;;;;;;9.57;4.80;;;18.20;1.00;;;;;;4976396;28;20044;-61
2023/07/11 05:16:49;;;;;;;9.15;4.85;;;19.00;1.00;;;;;;4970243;28;20035;-61
2023/07/11 05:19:15;;;;;;;12.85;5.30;;;18.50;1.00;;;;;;4972710;28;20106;-61
2023/07/11 05:21:41;;;;;;;9.98;5.72;;;18.40;1.00;;;;;;4987679;28;20515;-61
2023/07/11 05:24:08;;;;;;;10.68;4.78;;;;;;;;;;4987132;28;20030;-61
2023/07/11 05:26:34;;;;;;;11.63;5.15;;;18.80;1.00;;;;;;4985741;28;20130;-62
2023/07/11 05:29:00;;;;;;;11.20;5.18;;;19.40;1.00;;;;;;4981349;28;20030;-61
2023/07/11 05:31:25;;;;;;;9.05;6.28;;;19.00;1.00;;;;;;4988923;28;20042;-62
2023/07/11 05:33:53;;;;;;;11.68;6.13;;;19.00;1.00;;;;;;4978131;28;20058;-62
2023/07/11 05:36:32;;;;;;;9.52;5.43;;;18.80;1.00;;;;;;4989134;28;20085;-61
2023/07/11 05:39:08;;;;;;;10.85;5.32;;;19.30;1.00;;;;;;4982585;28;20043;-61
2023/07/11 05:41:36;;;;;;;12.05;5.93;;;18.60;1.00;;;;;;4979563;28;20125;-61
2023/07/11 05:44:02;;;;;;;10.15;5.90;;;18.70;1.00;;;;;;4989421;28;20120;-61
2023/07/11 05:46:28;;;;;;;11.30;6.20;;;19.60;1.00;;;;;;4980991;28;20039;-61
2023/07/11 05:48:55;;;;;;;10.30;5.75;;;19.30;1.00;;;;;;4983042;28;20049;-61
2023/07/11 05:51:21;;;;;;;9.85;5.55;;;18.70;1.00;;;;;;4986279;28;20085;-61
2023/07/11 05:53:48;;;;;;;11.32;6.05;;;19.60;1.00;;;;;;4978759;28;20041;-61
2023/07/11 05:56:15;;;;;;;12.95;5.68;;;19.30;1.00;;;;;;4976824;28;20092;-62
2023/07/11 05:58:44;;;;;;;10.60;5.32;;;19.40;1.00;;;;;;4980444;28;20043;-62
2023/07/11 06:01:21;;;;;;;11.05;5.57;;;19.40;1.00;;;;;;4987513;28;20109;-61
2023/07/11 06:03:50;;;;;;;11.07;5.70;;;19.60;1.00;;;;;;4985105;28;20077;-61
2023/07/11 06:06:17;;;;;;;10.20;5.85;;;19.20;1.00;;;;;;4970168;28;20500;-61
2023/07/11 06:08:42;;;;;;;12.07;5.38;;;19.00;1.00;;;;;;4985148;28;20042;-61
2023/07/11 06:11:08;;;;;;;12.27;5.82;;;19.40;1.00;;;;;;4975259;28;20505;-62
2023/07/11 06:13:37;;;;;;;12.45;5.85;;;19.90;1.00;;;;;;4984509;28;20058;-61
2023/07/11 06:16:10;;;;;;;10.50;6.03;;;19.50;1.00;;;;;;4987554;28;20084;-61
2023/07/11 06:18:37;;;;;;;10.73;5.90;;;19.70;1.00;;;;;;4975077;28;20047;-61
2023/07/11 06:21:05;;;;;;;11.88;6.85;;;20.30;1.00;;;;;;4978263;28;20053;-61
2023/07/11 06:23:30;;;;;;;9.88;6.05;;;19.80;99.90;;;;;;4972552;28;20049;-61
2023/07/11 06:25:56;;;;;;;13.30;6.93;;;20.00;99.90;;;;;;4975378;28;20038;-61
2023/07/11 06:28:21;;;;;;;12.07;6.72;;;19.80;99.90;;;;;;4979825;28;20441;-61
2023/07/11 06:30:47;;;;;;;11.00;6.80;;;19.90;99.90;;;;;;4979221;28;20094;-61
2023/07/11 06:33:14;;;;;;;10.50;6.95;;;20.50;99.90;;;;;;4984563;28;20181;-62
2023/07/11 06:35:41;;;;;;;12.25;7.53;;;20.00;99.90;;;;;;4986386;28;20453;-61
2023/07/11 06:38:07;;;;;;;12.15;7.60;;;19.70;99.90;;;;;;4983721;28;20034;-61
2023/07/11 06:40:33;;;;;;;12.20;6.97;;;19.80;99.90;;;;;;4997039;28;20089;-62
2023/07/11 06:42:59;;;;;;;10.55;7.38;;;20.10;99.90;;;;;;4973974;28;20050;-61
2023/07/11 06:45:25;;;;;;;13.93;7.78;;;19.80;99.90;;;;;;4987665;28;20092;-61
2023/07/11 06:47:50;;;;;;;11.13;7.30;;;20.00;99.90;;;;;;4987269;28;20180;-61
2023/07/11 06:50:16;;;;;;;12.38;7.72;;;20.00;99.90;;;;;;4974678;28;20080;-61
2023/07/11 06:52:43;;;;;;;13.30;7.43;;;20.60;99.90;;;;;;4989520;28;20034;-61
2023/07/11 06:55:09;;;;;;;11.82;6.82;;;20.20;99.90;;;;;;4976550;28;20034;-61
2023/07/11 06:57:35;;;;;;;10.48;7.07;;;20.50;99.90;;;;;;4981917;28;20509;-61
2023/07/11 07:00:00;;;;;;;9.23;6.63;;;20.60;99.90;;;;;;4987407;28;20039;-61
2023/07/11 07:02:26;;;;;;;12.52;7.72;;;20.50;99.90;;;;;;4989152;28;20042;-61
2023/07/11 07:04:52;;;;;;;10.40;6.40;;;20.60;99.90;;;;;;4983087;28;20077;-62
2023/07/11 07:07:19;;;;;;;12.20;6.88;;;21.60;99.90;;;;;;4986655;28;20070;-61
2023/07/11 07:09:45;;;;;;;11.15;6.40;;;21.70;99.90;;;;;;4983355;28;20077;-61
2023/07/11 07:12:10;;;;;;;12.50;6.68;;;21.50;99.90;;;;;;4991682;28;20069;-61
2023/07/11 07:14:36;;;;;;;14.02;7.15;;;21.80;99.90;;;;;;4987411;28;20401;-62
2023/07/11 07:17:02;;;;;;;9.43;6.25;;;21.60;99.90;;;;;;4991080;28;20474;-61
2023/07/11 07:19:27;;;;;;;16.52;7.60;;;21.50;99.90;;;;;;4988574;28;20096;-61
2023/07/11 07:21:53;;;;;;;12.98;6.43;;;21.50;99.90;;;;;;4989857;28;20043;-61
2023/07/11 07:24:19;;;;;;;11.20;6.60;;;21.60;99.90;;;;;;4982967;28;20068;-62
2023/07/11 07:26:44;;;;;;;10.55;6.07;;;22.10;99.90;;;;;;4987995;28;20399;-62
2023/07/11 07:29:10;;;;;;;11.45;7.18;;;21.70;99.90;;;;;;4978423;28;20042;-62
2023/07/11 07:31:35;;;;;;;11.38;6.90;;;21.50;99.90;;;;;;4985745;28;20177;-61
2023/07/11 07:34:01;;;;;;;12.77;6.63;;;21.30;99.90;;;;;;4979411;28;20041;-62
2023/07/11 07:36:27;;;;;;;9.90;6.43;;;21.20;94.90;;;;;;5003292;28;20047;-62
2023/07/11 07:38:52;;;;;;;11.18;6.57;;;21.50;86.90;;;;;;4987188;28;20102;-62
2023/07/11 07:41:19;;;;;;;15.00;7.18;;;22.20;56.20;;;;;;4991642;28;20046;-61
2023/07/11 07:43:45;;;;;;;10.32;5.90;;;21.20;41.60;;;;;;4987519;28;20038;-62
2023/07/11 07:46:15;;;;;;;12.85;6.38;;;21.90;31.70;;;;;;4986975;28;20030;-62
2023/07/11 07:48:43;;;;;;;12.38;6.25;;;22.20;58.70;;;;;;4991164;28;20389;-62
2023/07/11 07:51:17;;;;;;;10.35;6.28;;;22.10;99.90;;;;;;4991845;28;20121;-62
2023/07/11 07:53:43;;;;;;;11.90;6.13;;;21.70;92.70;;;;;;4990786;28;20101;-61
2023/07/11 07:56:13;;;;;;;9.57;6.40;;;22.00;11.90;;;;;;4987455;28;20034;-62
2023/07/11 07:58:40;;;;;;;10.23;6.28;;;22.30;1.00;;;;;;5005375;28;20047;-62
2023/07/11 08:01:05;;;;;;;10.73;6.05;;;22.50;21.50;;;;;;4982334;28;20054;-62
2023/07/11 08:03:32;;;;;;;10.10;5.55;;;22.50;1.00;;;;;;4986674;28;20046;-62
2023/07/11 08:05:58;;;;;;;10.95;5.07;;;22.60;1.00;;;;;;4984906;28;20062;-62
2023/07/11 08:08:24;;;;;;;11.88;5.43;;;22.70;99.90;;;;;;4989384;28;20039;-61
2023/07/11 08:10:50;;;;;;;8.10;4.82;;;23.00;99.90;;;;;;4983621;28;20548;-62
2023/07/11 08:13:16;;;;;;;8.52;4.70;;;22.80;99.90;;;;;;4990400;28;20121;-62
2023/07/11 08:15:42;;;;;;;7.82;4.88;;;23.10;99.90;;;;;;4985975;28;20539;-62
2023/07/11 08:18:09;;;;;;;8.65;4.70;;;23.70;74.10;;;;;;4980383;28;20058;-62
2023/07/11 08:20:35;;;;;;;6.80;3.95;;;23.40;1.00;;;;;;4987819;28;20050;-62
2023/07/11 08:23:01;;;;;;;9.00;3.90;;;23.20;1.00;;;;;;4988493;28;20539;-62
2023/07/11 08:25:27;;;;;;;8.18;4.38;;;25.70;99.90;;;;;;4988956;28;20062;-62
2023/07/11 08:27:53;;;;;;;9.68;4.47;;;23.10;99.90;;;;;;4989677;28;20038;-62
2023/07/11 08:30:19;;;;;;;9.75;4.20;;;24.00;99.90;;;;;;4990095;28;20045;-62
2023/07/11 08:32:45;;;;;;;9.35;4.60;;;23.40;99.90;;;;;;4982308;28;20525;-61
2023/07/11 08:35:11;;;;;;;10.98;3.95;;;23.30;99.90;;;;;;4980014;28;20117;-62
2023/07/11 08:37:37;;;;;;;9.57;3.97;;;23.40;88.40;;;;;;4980595;28;20109;-62
2023/07/11 08:40:02;;;;;;;7.75;4.18;;;23.40;11.70;;;;;;4985899;28;20377;-62
2023/07/11 08:42:36;;;;;;;9.60;4.10;;;23.20;1.00;;;;;;4973361;28;20039;-62
2023/07/11 08:45:14;;;;;;;9.80;4.20;;;24.30;18.30;;;;;;4984053;28;20049;-61
2023/07/11 08:47:43;;;;;;;8.25;4.10;;;23.00;83.90;;;;;;4976686;28;20042;-61
2023/07/11 08:50:13;;;;;;;9.05;3.75;;;24.10;60.30;;;;;;5001767;28;20551;-62
2023/07/11 08:52:41;;;;;;;7.72;3.40;;;23.50;1.00;;;;;;4977060;28;20035;-61
2023/07/11 08:55:40;;;;;;;9.48;3.47;;;23.60;1.00;;;;;;4975198;28;20050;-62
2023/07/11 08:58:13;;;;;;;6.97;3.50;;;23.90;1.00;;;;;;4987162;28;20038;-62
2023/07/11 09:00:41;;;;;;;9.35;3.63;;;24.00;1.00;;;;;;4989122;28;20030;-62
2023/07/11 09:03:26;;;;;;;6.63;3.00;;;24.90;1.00;;;;;;4989024;28;20125;-62
2023/07/11 09:06:04;;;;;;;11.18;4.03;;;23.80;99.90;;;;;;4987109;28;20090;-62
2023/07/11 09:08:31;;;;;;;8.98;3.70;;;24.90;99.90;;;;;;4978346;28;20043;-63
2023/07/11 09:11:17;;;;;;;9.82;3.90;;;23.80;99.90;;;;;;4985715;28;20068;-63
2023/07/11 09:14:16;;;;;;;6.78;3.33;;;23.80;99.90;;;;;;4982970;28;20042;-63
2023/07/11 09:17:01;;;;;;;8.63;4.03;;;24.00;99.90;;;;;;4979549;28;20057;-64
2023/07/11 09:19:29;;;;;;;;;;;23.60;99.90;;;;;;4983375;28;20051;-65
2023/07/11 09:22:19;;;;;;;8.07;4.10;;;23.80;99.90;;;;;;4970964;28;20252;-64
2023/07/11 09:24:54;;;;;;;7.57;3.42;;;23.90;99.90;;;;;;4974846;28;20046;-63
2023/07/11 09:27:29;;;;;;;8.00;3.33;;;23.90;99.90;;;;;;4978107;28;20037;-64
2023/07/11 09:29:55;;;;;;;6.10;3.00;;;23.80;99.90;;;;;;4978211;28;20042;-63
2023/07/11 09:32:34;;;;;;;10.90;3.10;;;24.50;99.90;;;;;;4981134;28;20085;-63
2023/07/11 09:35:21;;;;;;;8.75;2.67;;;24.00;99.90;;;;;;4979434;28;20093;-64
2023/07/11 09:37:51;;;;;;;9.98;2.60;;;25.30;99.90;;;;;;4984307;28;20086;-63
2023/07/11 09:40:26;;;;;;;8.85;3.47;;;24.80;99.90;;;;;;4985792;28;20377;-64
2023/07/11 09:42:57;;;;;;;10.68;3.42;;;24.80;99.90;;;;;;4985709;28;20042;-64
2023/07/11 09:45:42;;;;;;;10.30;3.53;;;24.30;99.90;;;;;;4979856;28;20051;-63
2023/07/11 09:48:14;;;;;;;7.57;3.13;;;24.10;99.90;;;;;;4979676;28;20092;-63
2023/07/11 09:51:00;;;;;;;8.43;3.60;;;24.70;99.90;;;;;;4985795;28;20069;-63
2023/07/11 09:53:28;;;;;;;7.68;4.07;;;24.50;99.90;;;;;;4983336;28;20042;-63
2023/07/11 09:55:56;;;;;;;8.57;3.92;;;25.30;99.90;;;;;;4981774;28;20050;-62
2023/07/11 09:58:21;;;;;;;6.47;3.15;;;24.30;99.90;;;;;;4984006;28;20046;-63
2023/07/11 10:00:51;;;;;;;8.73;3.90;;;24.50;99.90;;;;;;4979161;28;20047;-63
2023/07/11 10:03:19;;;;;;;8.25;3.60;;;24.50;99.90;;;;;;4982502;28;20373;-63
2023/07/11 10:05:48;;;;;;;10.07;3.50;;;24.40;99.90;;;;;;4984567;28;20034;-63
2023/07/11 10:08:28;;;;;;;9.20;3.42;;;24.30;99.90;;;;;;4981373;28;20070;-63
2023/07/11 10:11:01;;;;;;;9.52;3.40;;;24.40;99.90;;;;;;4984896;28;20524;-63
2023/07/11 10:13:27;;;;;;;15.13;4.63;;;25.30;99.90;;;;;;4982269;28;20070;-63
2023/07/11 10:15:55;;;;;;;8.88;4.43;;;25.40;99.90;;;;;;4978317;28;20538;-63
2023/07/11 10:18:27;;;;;;;9.98;4.50;;;24.60;99.90;;;;;;4976942;28;20089;-63
2023/07/11 10:21:00;;;;;;;8.73;4.43;;;25.60;99.90;;;;;;4989918;28;20042;-63
2023/07/11 10:23:26;;;;;;;7.10;3.90;;;24.70;99.90;;;;;;4984393;28;20057;-63
2023/07/11 10:26:00;;;;;;;9.00;3.90;;;24.60;99.90;;;;;;4983366;28;20039;-63
2023/07/11 10:28:45;;;;;;;10.93;4.40;;;25.10;99.90;;;;;;4977287;28;20038;-63
2023/07/11 10:31:18;;;;;;;13.35;4.43;;;25.00;99.90;;;;;;4986952;28;20278;-63
2023/07/11 10:33:53;;;;;;;9.87;4.30;;;24.60;99.90;;;;;;4980353;28;20158;-64
2023/07/11 10:36:30;;;;;;;9.32;4.00;;;25.60;99.90;;;;;;4987353;28;20042;-63
2023/07/11 10:39:00;;;;;;;10.65;4.78;;;25.60;99.90;;;;;;4999943;28;20042;-63
2023/07/11 10:41:49;;;;;;;11.93;4.28;;;24.80;99.90;;;;;;4978829;28;20119;-63
2023/07/11 10:44:34;;;;;;;9.80;4.70;;;25.80;99.90;;;;;;4981763;28;20076;-63
2023/07/11 10:47:00;;;;;;;8.50;3.53;;;25.60;99.90;;;;;;4981888;28;20507;-63
2023/07/11 10:49:35;;;;;;;8.60;4.60;;;25.50;99.90;;;;;;4980433;28;20053;-63
2023/07/11 10:52:19;;;;;;;10.52;4.18;;;25.40;99.90;;;;;;4973059;28;20053;-63
2023/07/11 10:55:13;;;;;;;9.30;3.75;;;24.60;99.90;;;;;;4978939;28;20454;-63
2023/07/11 10:57:41;;;;;;;8.17;3.13;;;25.20;99.90;;;;;;4980053;28;20050;-63
2023/07/11 11:00:33;;;;;;;8.20;3.13;;;25.30;99.90;;;;;;4986788;28;20356;-63
2023/07/11 11:03:12;;;;;;;7.65;3.08;;;25.10;99.90;;;;;;4980487;28;20042;-63
2023/07/11 11:05:47;;;;;;;8.57;2.47;;;25.70;99.90;;;;;;4980600;28;20039;-63
2023/07/11 11:08:38;;;;;;;7.90;2.70;;;24.60;99.90;;;;;;4988051;28;20038;-63
2023/07/11 11:11:31;;;;;;;9.30;2.92;;;25.40;99.90;;;;;;4979744;28;20402;-63
2023/07/11 11:14:15;;;;;;;9.25;3.08;;;24.50;99.90;;;;;;4979187;28;20463;-63
2023/07/11 11:17:05;;;;;;;10.70;3.83;;;25.60;99.90;;;;;;4981091;28;20045;-63
2023/07/11 11:19:49;;;;;;;8.40;3.95;;;25.10;99.90;;;;;;4978948;28;20096;-63
2023/07/11 11:22:25;;;;;;;10.23;3.65;;;25.80;99.90;;;;;;4976078;28;20065;-63
2023/07/11 11:25:00;;;;;;;11.27;3.60;;;25.50;99.90;;;;;;4975665;28;20125;-63
2023/07/11 11:27:53;;;;;;;8.15;2.95;;;25.60;99.90;;;;;;4979076;28;20042;-66
2023/07/11 11:30:33;;;;;;;7.55;3.10;;;24.60;99.90;;;;;;4976693;28;20057;-63
2023/07/11 11:33:05;;;;;;;7.90;3.03;;;24.90;99.90;;;;;;4978720;28;20109;-62
2023/07/11 11:36:03;;;;;;;7.55;3.33;;;25.50;99.90;;;;;;4971063;28;20046;-62
2023/07/11 11:39:08;;;;;;;9.27;2.92;;;25.90;99.90;;;;;;4975733;28;20519;-63
2023/07/11 11:41:41;;;;;;;;;;;25.50;99.90;;;;;;4956192;28;20132;-63
2023/07/11 11:44:17;;;;;;;9.30;2.78;;;27.10;99.90;;;;;;4983745;28;20455;-63
2023/07/11 11:46:45;;;;;;;7.43;2.70;;;24.90;99.90;;;;;;4981429;28;20038;-63
2023/07/11 11:49:13;;;;;;;7.55;3.08;;;25.10;99.90;;;;;;4979620;28;20050;-62
2023/07/11 11:51:41;;;;;;;8.48;2.95;;;25.50;99.90;;;;;;4983522;28;20042;-62
2023/07/11 11:54:18;;;;;;;8.07;3.63;;;25.20;99.90;;;;;;4988846;28;20049;-62
2023/07/11 11:56:47;;;;;;;7.47;2.75;;;24.90;99.90;;;;;;4987666;28;20046;-62
2023/07/11 11:59:25;;;;;;;10.95;3.00;;;24.50;99.90;;;;;;4980825;28;20042;-62
2023/07/11 12:01:53;;;;;;;6.35;2.88;;;25.60;99.90;;;;;;4987181;28;20046;-62
2023/07/11 12:04:28;;;;;;;6.85;3.25;;;25.50;99.90;;;;;;4985492;28;20038;-62
2023/07/11 12:07:12;;;;;;;7.53;2.63;;;25.20;99.90;;;;;;4988108;28;20089;-62
2023/07/11 12:09:53;;;;;;;9.27;2.70;;;25.50;99.90;;;;;;4980498;28;20035;-62
2023/07/11 12:12:24;;;;;;;8.05;2.42;;;25.90;99.90;;;;;;4979742;28;20065;-62
2023/07/11 12:14:50;;;;;;;6.95;1.90;;;25.70;99.90;;;;;;4977218;28;20038;-62
2023/07/11 12:17:31;;;;;;;5.93;1.95;;;25.20;99.90;;;;;;4980410;28;20151;-62
2023/07/11 12:20:00;;;;;;;5.20;1.60;;;26.10;99.90;;;;;;4978629;28;20493;-62
2023/07/11 12:22:38;;;;;;;5.03;1.73;;;25.80;99.90;;;;;;4984972;28;20068;-62
2023/07/11 12:25:06;;;;;;;5.97;1.35;;;25.10;99.90;;;;;;4981945;28;20039;-63
2023/07/11 12:27:35;;;;;;;4.20;1.92;;;25.80;99.90;;;;;;4990545;28;20125;-62
2023/07/11 12:30:26;;;;;;;5.18;1.70;;;25.50;99.90;;;;;;4988041;28;20038;-63
2023/07/11 12:32:54;;;;;;;4.90;1.50;;;26.40;99.90;;;;;;4977421;28;20041;-63
2023/07/11 12:35:35;;;;;;;4.53;1.40;;;26.00;99.90;;;;;;4980981;28;20045;-63
2023/07/11 12:38:10;;;;;;;6.07;1.27;;;25.90;99.90;;;;;;4978188;28;20049;-63
2023/07/11 12:40:45;;;;;;;5.18;1.30;;;25.80;99.90;;;;;;4986665;28;20057;-63
2023/07/11 12:43:23;;;;;;;6.32;1.30;;;26.30;99.90;;;;;;4979701;28;20049;-63
2023/07/11 12:45:53;;;;;;;4.38;1.85;;;27.00;99.90;;;;;;4979864;28;20121;-63
2023/07/11 12:48:36;;;;;;;4.15;1.40;;;27.30;99.90;;;;;;4977085;28;20125;-63
2023/07/11 12:51:26;;;;;;;4.50;1.13;;;27.90;99.90;;;;;;4978724;28;20038;-63
2023/07/11 12:54:11;;;;;;;3.92;1.27;;;28.00;99.90;;;;;;4985916;28;20034;-63
2023/07/11 12:56:48;;;;;;;4.18;1.30;;;27.90;99.90;;;;;;4980988;28;20034;-62
2023/07/11 12:59:21;;;;;;;4.25;1.48;;;27.50;99.90;;;;;;4987625;28;20571;-63
2023/07/11 13:01:49;;;;;;;6.53;1.50;;;27.30;99.90;;;;;;4982784;28;20085;-62